createdAt,value
2019-05-18T00:01:13.337Z,99525.50
2019-05-18T00:03:41.750Z,99519.66
2019-05-18T00:06:10.156Z,99523.44
2019-05-18T00:08:38.605Z,99522.41
2019-05-18T00:11:07.022Z,99518.63
2019-05-18T00:13:35.460Z,99529.41
2019-05-18T00:16:03.903Z,99531.48
2019-05-18T00:18:32.296Z,99526.14
2019-05-18T00:21:00.726Z,99523.55
2019-05-18T00:23:29.213Z,99527.84
2019-05-18T00:25:57.645Z,99524.57
2019-05-18T00:28:26.062Z,99519.88
2019-05-18T00:30:54.486Z,99513.26
2019-05-18T00:33:22.946Z,99511.53
2019-05-18T00:35:51.480Z,99512.15
2019-05-18T00:38:19.901Z,99507.41
2019-05-18T00:40:48.341Z,99509.25
2019-05-18T00:43:16.734Z,99508.94
2019-05-18T00:45:45.213Z,99506.43
2019-05-18T00:48:13.721Z,99508.00
2019-05-18T00:50:42.246Z,99504.35
2019-05-18T00:53:10.815Z,99505.80
2019-05-18T00:55:39.208Z,99509.96
2019-05-18T00:58:07.615Z,99514.68
2019-05-18T01:00:36.064Z,99498.30
2019-05-18T01:03:04.595Z,99501.09
2019-05-18T01:05:33.077Z,99502.11
2019-05-18T01:08:01.494Z,99501.67
2019-05-18T01:10:29.934Z,99505.80
2019-05-18T01:12:58.451Z,99499.52
2019-05-18T01:15:26.873Z,99503.33
2019-05-18T01:17:57.653Z,99496.64
2019-05-18T01:20:25.555Z,99501.16
2019-05-18T01:22:54.010Z,99500.03
2019-05-18T01:25:22.409Z,99500.13
2019-05-18T01:27:50.862Z,99503.13
2019-05-18T01:30:19.646Z,99496.72
2019-05-18T01:32:48.204Z,99506.68
2019-05-18T01:35:16.777Z,99509.22
2019-05-18T01:37:45.214Z,99500.92
2019-05-18T01:40:14.090Z,99509.17
2019-05-18T01:42:42.523Z,99510.51
2019-05-18T01:45:16.822Z,99513.56
2019-05-18T01:47:41.575Z,99518.34
2019-05-18T01:50:10.925Z,99521.68
2019-05-18T01:52:39.435Z,99515.00
2019-05-18T01:55:08.185Z,99509.45
2019-05-18T01:57:36.743Z,99506.47
2019-05-18T02:00:10.582Z,99500.69
2019-05-18T02:02:39.029Z,99497.13
2019-05-18T02:05:08.007Z,99500.98
2019-05-18T02:07:36.403Z,99505.59
2019-05-18T02:10:06.791Z,99499.58
2019-05-18T02:12:35.194Z,99502.48
2019-05-18T02:15:04.663Z,99503.53
2019-05-18T02:17:33.145Z,99506.99
2019-05-18T02:20:01.597Z,99502.41
2019-05-18T02:22:30.007Z,99495.97
2019-05-18T02:24:58.446Z,99491.59
2019-05-18T02:27:26.859Z,99493.05
2019-05-18T02:29:55.297Z,99479.56
2019-05-18T02:32:23.758Z,99487.05
2019-05-18T02:34:52.223Z,99479.59
2019-05-18T02:37:20.673Z,99476.70
2019-05-18T02:39:50.742Z,99476.32
2019-05-18T02:42:19.155Z,99480.53
2019-05-18T02:44:47.705Z,99477.21
2019-05-18T02:47:16.135Z,99471.75
2019-05-18T02:49:44.662Z,99480.89
2019-05-18T02:52:13.053Z,99469.08
2019-05-18T02:54:41.509Z,99477.53
2019-05-18T02:57:09.968Z,99478.13
2019-05-18T02:59:38.379Z,99465.81
2019-05-18T03:02:07.011Z,99474.45
2019-05-18T03:04:35.450Z,99470.36
2019-05-18T03:07:03.977Z,99472.96
2019-05-18T03:09:32.418Z,99474.48
2019-05-18T03:12:00.825Z,99474.07
2019-05-18T03:14:29.223Z,99476.89
2019-05-18T03:16:57.675Z,99479.98
2019-05-18T03:19:26.173Z,99476.15
2019-05-18T03:21:54.623Z,99484.38
2019-05-18T03:24:23.158Z,99480.61
2019-05-18T03:26:51.562Z,99479.20
2019-05-18T03:29:19.982Z,99478.52
2019-05-18T03:31:48.457Z,99487.52
2019-05-18T03:34:16.899Z,99482.36
2019-05-18T03:36:45.545Z,99484.98
2019-05-18T03:39:15.755Z,99481.38
2019-05-18T03:41:44.200Z,99474.76
2019-05-18T03:44:12.658Z,99488.52
2019-05-18T03:46:41.189Z,99480.77
2019-05-18T03:49:25.499Z,99482.67
2019-05-18T03:51:39.776Z,99480.61
2019-05-18T03:54:08.238Z,99487.81
2019-05-18T03:56:36.645Z,99487.05
2019-05-18T03:59:05.109Z,99488.00
2019-05-18T04:01:33.530Z,99493.41
2019-05-18T04:04:01.994Z,99493.81
2019-05-18T04:06:30.495Z,99495.75
2019-05-18T04:08:58.908Z,99490.13
2019-05-18T04:11:27.519Z,99492.34
2019-05-18T04:13:55.928Z,99500.52
2019-05-18T04:16:24.427Z,99502.36
2019-05-18T04:18:52.853Z,99500.02
2019-05-18T04:21:21.283Z,99495.63
2019-05-18T04:23:49.688Z,99503.70
2019-05-18T04:26:18.134Z,99511.21
2019-05-18T04:28:46.648Z,99513.02
2019-05-18T04:31:15.073Z,99510.63
2019-05-18T04:33:43.507Z,99512.95
2019-05-18T04:36:11.938Z,99508.55
2019-05-18T04:38:40.327Z,99508.83
2019-05-18T04:41:08.878Z,99508.80
2019-05-18T04:43:37.308Z,99501.92
2019-05-18T04:46:05.703Z,99513.30
2019-05-18T04:48:34.123Z,99513.71
2019-05-18T04:51:02.627Z,99508.70
2019-05-18T04:53:31.030Z,99512.72
2019-05-18T04:55:59.476Z,99508.55
2019-05-18T04:58:27.885Z,99513.05
2019-05-18T05:00:56.283Z,99510.02
2019-05-18T05:03:24.739Z,99512.81
2019-05-18T05:05:53.158Z,99512.16
2019-05-18T05:08:21.584Z,99512.31
2019-05-18T05:10:50.007Z,99516.53
2019-05-18T05:13:18.426Z,99518.38
2019-05-18T05:15:46.860Z,99524.50
2019-05-18T05:18:15.268Z,99526.22
2019-05-18T05:20:45.557Z,99533.12
2019-05-18T05:23:13.968Z,99533.31
2019-05-18T05:25:42.397Z,99536.98
2019-05-18T05:28:10.839Z,99529.98
2019-05-18T05:30:39.246Z,99529.37
2019-05-18T05:33:07.683Z,99536.80
2019-05-18T05:35:37.795Z,99540.88
2019-05-18T05:38:06.447Z,99544.59
2019-05-18T05:40:34.885Z,99540.72
2019-05-18T05:43:03.296Z,99544.99
2019-05-18T05:45:31.776Z,99540.73
2019-05-18T05:48:00.241Z,99541.83
2019-05-18T05:50:36.037Z,99537.63
2019-05-18T05:52:58.865Z,99539.55
2019-05-18T05:55:27.308Z,99546.14
2019-05-18T05:57:55.719Z,99543.53
2019-05-18T06:00:24.144Z,99541.83
2019-05-18T06:02:52.694Z,99545.41
2019-05-18T06:05:21.105Z,99544.20
2019-05-18T06:07:49.537Z,99537.35
2019-05-18T06:10:18.521Z,99535.03
2019-05-18T06:12:47.343Z,99536.78
2019-05-18T06:15:16.095Z,99540.52
2019-05-18T06:17:44.509Z,99536.16
2019-05-18T06:20:13.118Z,99538.91
2019-05-18T06:22:41.557Z,99542.04
2019-05-18T06:25:10.339Z,99541.14
2019-05-18T06:27:38.947Z,99534.86
2019-05-18T06:30:08.017Z,99538.50
2019-05-18T06:32:36.515Z,99534.46
2019-05-18T06:35:05.905Z,99537.77
2019-05-18T06:37:34.354Z,99541.03
2019-05-18T06:40:02.786Z,99542.10
2019-05-18T06:42:31.421Z,99544.16
2019-05-18T06:44:59.983Z,99541.73
2019-05-18T06:47:28.560Z,99547.38
2019-05-18T06:49:57.025Z,99547.08
2019-05-18T06:52:25.507Z,99545.63
2019-05-18T06:54:53.935Z,99546.64
2019-05-18T06:57:25.586Z,99540.70
2019-05-18T06:59:54.561Z,99546.33
2019-05-18T07:02:22.971Z,99547.98
2019-05-18T07:04:51.396Z,99553.24
2019-05-18T07:07:19.805Z,99556.61
2019-05-18T07:09:48.239Z,99551.98
2019-05-18T07:12:16.759Z,99551.28
2019-05-18T07:14:45.249Z,99552.42
2019-05-18T07:17:13.619Z,99555.09
2019-05-18T07:19:42.016Z,99554.97
2019-05-18T07:22:10.447Z,99550.26
2019-05-18T07:24:38.853Z,99546.25
2019-05-18T07:27:07.282Z,99547.00
2019-05-18T07:29:35.709Z,99551.92
2019-05-18T07:32:04.221Z,99553.57
2019-05-18T07:34:32.622Z,99543.70
2019-05-18T07:37:01.121Z,99556.05
2019-05-18T07:39:29.531Z,99557.14
2019-05-18T07:41:57.936Z,99552.67
2019-05-18T07:44:26.471Z,99553.49
2019-05-18T07:46:54.899Z,99549.06
2019-05-18T07:49:23.302Z,99550.59
2019-05-18T07:51:51.744Z,99555.73
2019-05-18T07:54:20.222Z,99554.91
2019-05-18T07:56:48.624Z,99554.36
2019-05-18T07:59:19.773Z,99552.83
2019-05-18T08:01:47.275Z,99559.36
2019-05-18T08:04:18.711Z,99556.84
2019-05-18T08:06:47.136Z,99556.92
2019-05-18T08:09:15.552Z,99554.36
2019-05-18T08:11:44.032Z,99555.70
2019-05-18T08:14:12.441Z,99554.68
2019-05-18T08:16:40.893Z,99560.53
2019-05-18T08:19:09.399Z,99566.31
2019-05-18T08:21:52.266Z,99565.87
2019-05-18T08:24:08.241Z,99563.91
2019-05-18T08:26:36.978Z,99558.88
2019-05-18T08:29:05.470Z,99560.23
2019-05-18T08:31:33.960Z,99566.59
2019-05-18T08:34:02.576Z,99556.22
2019-05-18T08:36:31.107Z,99553.86
2019-05-18T08:38:59.692Z,99559.40
2019-05-18T08:41:28.103Z,99555.82
2019-05-18T08:44:03.818Z,99557.04
2019-05-18T08:46:32.216Z,99557.47
2019-05-18T08:49:00.721Z,99560.97
2019-05-18T08:51:29.188Z,99560.45
2019-05-18T08:53:57.652Z,99560.03
2019-05-18T08:56:26.065Z,99556.96
2019-05-18T08:58:54.661Z,99551.73
2019-05-18T09:01:23.230Z,99553.58
2019-05-18T09:03:51.633Z,99549.17
2019-05-18T09:06:20.075Z,99546.50
2019-05-18T09:08:48.774Z,99552.47
2019-05-18T09:11:17.231Z,99551.95
2019-05-18T09:13:45.634Z,99551.02
2019-05-18T09:16:14.089Z,99552.56
2019-05-18T09:18:42.546Z,99552.86
2019-05-18T09:21:10.989Z,99560.55
2019-05-18T09:23:39.457Z,99558.30
2019-05-18T09:26:09.497Z,99554.39
2019-05-18T09:28:37.917Z,99549.73
2019-05-18T09:31:06.348Z,99550.37
2019-05-18T09:33:34.882Z,99550.24
2019-05-18T09:36:03.315Z,99549.59
2019-05-18T09:38:33.654Z,99536.73
2019-05-18T09:41:02.237Z,99540.20
2019-05-18T09:43:30.706Z,99541.20
2019-05-18T09:45:59.208Z,99543.63
2019-05-18T09:48:27.723Z,99530.30
2019-05-18T09:50:56.141Z,99536.38
2019-05-18T09:53:24.717Z,99538.13
2019-05-18T09:55:53.206Z,99536.17
2019-05-18T09:58:21.729Z,99535.63
2019-05-18T10:00:50.220Z,99539.89
2019-05-18T10:03:18.756Z,99538.41
2019-05-18T10:05:47.174Z,99532.52
2019-05-18T10:08:16.286Z,99536.23
2019-05-18T10:10:45.179Z,99536.09
2019-05-18T10:13:13.587Z,99529.84
2019-05-18T10:15:42.088Z,99526.34
2019-05-18T10:18:10.514Z,99521.33
2019-05-18T10:20:38.964Z,99517.75
2019-05-18T10:23:12.672Z,99518.61
2019-05-18T10:25:37.498Z,99520.47
2019-05-18T10:28:05.904Z,99513.92
2019-05-18T10:30:34.435Z,99513.80
2019-05-18T10:33:02.905Z,99517.98
2019-05-18T10:35:31.318Z,99515.33
2019-05-18T10:37:59.994Z,99511.02
2019-05-18T10:40:28.429Z,99512.86
2019-05-18T10:42:56.840Z,99515.17
2019-05-18T10:45:25.279Z,99513.01
2019-05-18T10:47:53.682Z,99511.68
2019-05-18T10:50:22.134Z,99506.53
2019-05-18T10:52:50.544Z,99507.20
2019-05-18T10:55:19.043Z,99501.95
2019-05-18T10:57:50.617Z,99505.74
2019-05-18T11:00:23.034Z,99498.52
2019-05-18T11:02:51.483Z,99495.31
2019-05-18T11:05:20.053Z,99495.41
2019-05-18T11:07:48.486Z,99493.91
2019-05-18T11:10:20.180Z,99491.30
2019-05-18T11:12:48.645Z,99489.73
2019-05-18T11:15:17.864Z,99488.75
2019-05-18T11:17:46.778Z,99482.30
2019-05-18T11:20:15.553Z,99485.34
2019-05-18T11:22:44.555Z,99487.89
2019-05-18T11:25:13.420Z,99483.48
2019-05-18T11:27:41.931Z,99478.43
2019-05-18T11:30:12.748Z,99478.43
2019-05-18T11:32:41.193Z,99482.55
2019-05-18T11:35:10.519Z,99476.41
2019-05-18T11:37:39.118Z,99465.67
2019-05-18T11:40:08.988Z,99464.33
2019-05-18T11:42:37.502Z,99456.83
2019-05-18T11:45:08.929Z,99459.87
2019-05-18T11:47:37.399Z,99459.73
2019-05-18T11:50:09.263Z,99454.61
2019-05-18T11:52:37.875Z,99452.22
2019-05-18T11:55:09.647Z,99445.13
2019-05-18T11:57:38.052Z,99447.72
2019-05-18T12:00:09.341Z,99442.81
2019-05-18T12:02:37.816Z,99447.19
2019-05-18T12:05:07.862Z,99438.48
2019-05-18T12:07:36.329Z,99435.72
2019-05-18T12:10:09.561Z,99440.42
2019-05-18T12:12:38.078Z,99431.59
2019-05-18T12:15:09.007Z,99431.30
2019-05-18T12:17:37.497Z,99433.84
2019-05-18T12:20:07.940Z,99433.62
2019-05-18T12:22:36.356Z,99434.06
2019-05-18T12:25:07.063Z,99436.75
2019-05-18T12:27:35.586Z,99431.16
2019-05-18T12:30:09.157Z,99430.77
2019-05-18T12:32:37.661Z,99434.14
2019-05-18T12:35:09.909Z,99436.75
2019-05-18T12:37:38.335Z,99441.45
2019-05-18T12:40:08.251Z,99437.65
2019-05-18T12:42:36.690Z,99439.95
2019-05-18T12:45:07.454Z,99438.31
2019-05-18T12:47:35.918Z,99439.66
2019-05-18T12:50:07.125Z,99434.14
2019-05-18T12:52:35.584Z,99431.75
2019-05-18T12:55:06.328Z,99420.17
2019-05-18T12:57:35.279Z,99411.11
2019-05-18T13:00:05.585Z,99418.28
2019-05-18T13:02:34.014Z,99416.04
2019-05-18T13:05:04.269Z,99416.34
2019-05-18T13:07:32.622Z,99419.14
2019-05-18T13:10:01.057Z,99415.48
2019-05-18T13:12:29.471Z,99416.20
2019-05-18T13:14:57.906Z,99416.43
2019-05-18T13:17:26.308Z,99419.19
2019-05-18T13:19:54.758Z,99413.00
2019-05-18T13:22:23.169Z,99427.33
2019-05-18T13:24:52.284Z,99418.25
2019-05-18T13:27:20.842Z,99423.13
2019-05-18T13:29:49.285Z,99425.14
2019-05-18T13:32:17.826Z,99425.46
2019-05-18T13:34:46.324Z,99429.81
2019-05-18T13:37:14.933Z,99427.00
2019-05-18T13:39:43.420Z,99429.38
2019-05-18T13:42:11.834Z,99417.13
2019-05-18T13:44:40.280Z,99414.13
2019-05-18T13:47:11.499Z,99411.39
2019-05-18T13:49:41.600Z,99412.73
2019-05-18T13:52:09.996Z,99410.39
2019-05-18T13:54:38.433Z,99411.28
2019-05-18T13:57:06.901Z,99405.44
2019-05-18T13:59:35.384Z,99397.67
2019-05-18T14:02:05.339Z,99386.78
2019-05-18T14:04:34.262Z,99379.02
2019-05-18T14:07:04.783Z,99378.20
2019-05-18T14:09:35.933Z,99383.92
2019-05-18T14:12:04.434Z,99375.52
2019-05-18T14:14:36.162Z,99375.74
2019-05-18T14:17:04.658Z,99373.05
2019-05-18T14:19:33.155Z,99373.12
2019-05-18T14:22:03.649Z,99360.52
2019-05-18T14:24:32.069Z,99365.06
2019-05-18T14:27:00.533Z,99362.38
2019-05-18T14:29:28.926Z,99362.42
2019-05-18T14:31:57.374Z,99364.06
2019-05-18T14:34:25.820Z,99352.16
2019-05-18T14:36:54.404Z,99356.19
2019-05-18T14:39:23.298Z,99353.50
2019-05-18T14:41:51.840Z,99342.53
2019-05-18T14:44:20.242Z,99349.59
2019-05-18T14:46:48.633Z,99346.60
2019-05-18T14:49:17.073Z,99337.72
2019-05-18T14:51:45.491Z,99350.11
2019-05-18T14:54:13.933Z,99341.94
2019-05-18T14:56:42.356Z,99339.14
2019-05-18T14:59:10.759Z,99343.05
2019-05-18T15:01:39.299Z,99341.67
2019-05-18T15:04:07.787Z,99335.41
2019-05-18T15:06:36.187Z,99340.03
2019-05-18T15:09:06.473Z,99336.30
2019-05-18T15:11:35.164Z,99337.38
2019-05-18T15:14:03.608Z,99340.33
2019-05-18T15:16:32.080Z,99337.64
2019-05-18T15:19:00.518Z,99326.89
2019-05-18T15:21:28.980Z,99332.01
2019-05-18T15:23:57.385Z,99339.84
2019-05-18T15:26:25.806Z,99336.86
2019-05-18T15:28:54.227Z,99340.59
2019-05-18T15:31:23.896Z,99340.59
2019-05-18T15:33:52.443Z,99340.59
2019-05-18T15:36:20.846Z,99345.18
2019-05-18T15:38:49.273Z,99340.03
2019-05-18T15:41:17.685Z,99347.05
2019-05-18T15:43:46.121Z,99340.89
2019-05-18T15:46:14.540Z,99334.43
2019-05-18T15:48:42.975Z,99343.02
2019-05-18T15:51:11.390Z,99341.15
2019-05-18T15:53:39.792Z,99347.61
2019-05-18T15:56:08.287Z,99345.97
2019-05-18T15:58:36.679Z,99345.74
2019-05-18T16:01:05.255Z,99343.02
2019-05-18T16:03:33.654Z,99348.95
2019-05-18T16:06:02.232Z,99346.04
2019-05-18T16:08:30.745Z,99347.91
2019-05-18T16:10:59.198Z,99345.74
2019-05-18T16:13:27.643Z,99347.16
2019-05-18T16:15:56.045Z,99351.03
2019-05-18T16:18:24.461Z,99344.02
2019-05-18T16:20:52.863Z,99345.92
2019-05-18T16:23:21.398Z,99346.70
2019-05-18T16:25:49.895Z,99343.72
2019-05-18T16:28:18.303Z,99343.20
2019-05-18T16:30:46.759Z,99346.63
2019-05-18T16:33:15.203Z,99341.03
2019-05-18T16:35:43.600Z,99341.56
2019-05-18T16:38:12.086Z,99343.72
2019-05-18T16:40:40.483Z,99339.50
2019-05-18T16:43:08.887Z,99341.14
2019-05-18T16:45:37.322Z,99338.45
2019-05-18T16:48:05.813Z,99349.50
2019-05-18T16:50:34.222Z,99352.27
2019-05-18T16:53:02.832Z,99346.52
2019-05-18T16:55:31.389Z,99349.69
2019-05-18T16:57:59.766Z,99352.64
2019-05-18T17:00:28.398Z,99353.42
2019-05-18T17:02:56.915Z,99351.30
2019-05-18T17:05:25.309Z,99348.46
2019-05-18T17:07:53.795Z,99345.47
2019-05-18T17:10:22.298Z,99349.64
2019-05-18T17:12:50.862Z,99345.25
2019-05-18T17:15:19.729Z,99354.59
2019-05-18T17:17:48.155Z,99361.78
2019-05-18T17:20:17.221Z,99362.98
2019-05-18T17:22:46.083Z,99366.30
2019-05-18T17:25:14.685Z,99374.52
2019-05-18T17:27:43.141Z,99373.95
2019-05-18T17:30:12.182Z,99373.28
2019-05-18T17:32:40.597Z,99383.68
2019-05-18T17:35:09.772Z,99393.08
2019-05-18T17:37:38.240Z,99389.80
2019-05-18T17:40:07.347Z,99392.27
2019-05-18T17:42:35.909Z,99399.42
2019-05-18T17:45:09.453Z,99400.77
2019-05-18T17:47:38.058Z,99396.36
2019-05-18T17:50:07.930Z,99398.75
2019-05-18T17:52:36.349Z,99400.91
2019-05-18T17:55:06.555Z,99403.33
2019-05-18T17:57:35.027Z,99400.64
2019-05-18T18:00:05.348Z,99400.87
2019-05-18T18:02:33.875Z,99397.88
2019-05-18T18:05:02.364Z,99401.09
2019-05-18T18:07:30.811Z,99413.39
2019-05-18T18:09:59.207Z,99428.17
2019-05-18T18:12:27.634Z,99435.41
2019-05-18T18:14:56.169Z,99446.59
2019-05-18T18:17:24.582Z,99462.18
2019-05-18T18:19:52.988Z,99472.10
2019-05-18T18:22:23.836Z,99471.75
2019-05-18T18:24:51.705Z,99480.03
2019-05-18T18:27:25.086Z,99485.48
2019-05-18T18:29:50.479Z,99496.36
2019-05-18T18:32:18.981Z,99511.59
2019-05-18T18:34:47.483Z,99522.09
2019-05-18T18:37:16.017Z,99540.23
2019-05-18T18:39:44.441Z,99545.43
2019-05-18T18:42:12.924Z,99553.27
2019-05-18T18:44:41.462Z,99556.17
2019-05-18T18:47:09.890Z,99560.09
2019-05-18T18:49:38.311Z,99557.89
2019-05-18T18:52:06.713Z,99562.88
2019-05-18T18:54:35.181Z,99562.56
2019-05-18T18:57:03.679Z,99571.66
2019-05-18T18:59:32.100Z,99579.41
2019-05-18T19:02:00.541Z,99581.64
2019-05-18T19:04:29.002Z,99587.34
2019-05-18T19:06:58.988Z,99586.92
2019-05-18T19:09:27.416Z,99594.12
2019-05-18T19:11:55.942Z,99594.43
2019-05-18T19:14:24.943Z,99597.02
2019-05-18T19:16:53.466Z,99591.23
2019-05-18T19:19:21.937Z,99587.55
2019-05-18T19:21:50.357Z,99578.08
2019-05-18T19:24:18.773Z,99575.09
2019-05-18T19:26:47.275Z,99567.36
2019-05-18T19:29:15.674Z,99562.73
2019-05-18T19:31:44.119Z,99557.48
2019-05-18T19:34:12.519Z,99561.29
2019-05-18T19:36:41.023Z,99570.75
2019-05-18T19:39:09.419Z,99565.69
2019-05-18T19:41:37.951Z,99566.20
2019-05-18T19:44:06.343Z,99556.56
2019-05-18T19:46:34.839Z,99551.75
2019-05-18T19:49:03.238Z,99547.33
2019-05-18T19:51:31.708Z,99536.33
2019-05-18T19:54:00.129Z,99523.35
2019-05-18T19:56:28.529Z,99515.22
2019-05-18T19:58:57.179Z,99503.59
2019-05-18T20:01:25.610Z,99502.27
2019-05-18T20:03:54.029Z,99502.37
2019-05-18T20:06:22.466Z,99501.55
2019-05-18T20:08:50.886Z,99502.98
2019-05-18T20:11:19.303Z,99503.81
2019-05-18T20:13:47.734Z,99502.90
2019-05-18T20:16:16.138Z,99504.75
2019-05-18T20:18:44.587Z,99504.55
2019-05-18T20:21:12.987Z,99497.97
2019-05-18T20:23:41.388Z,99498.27
2019-05-18T20:26:09.808Z,99489.51
2019-05-18T20:28:38.235Z,99480.88
2019-05-18T20:31:06.740Z,99474.09
2019-05-18T20:33:35.179Z,99478.81
2019-05-18T20:36:03.590Z,99485.19
2019-05-18T20:38:32.037Z,99492.71
2019-05-18T20:41:00.499Z,99510.12
2019-05-18T20:43:29.106Z,99537.57
2019-05-18T20:45:57.545Z,99556.41
2019-05-18T20:48:26.182Z,99561.77
2019-05-18T20:50:54.632Z,99565.13
2019-05-18T20:53:23.196Z,99563.61
2019-05-18T20:55:51.655Z,99562.88
2019-05-18T20:58:20.062Z,99570.94
2019-05-18T21:00:48.513Z,99568.88
2019-05-18T21:03:16.909Z,99575.05
2019-05-18T21:05:45.305Z,99569.80
2019-05-18T21:08:13.768Z,99570.55
2019-05-18T21:10:42.275Z,99564.63
2019-05-18T21:13:10.681Z,99562.86
2019-05-18T21:15:39.107Z,99563.11
2019-05-18T21:18:07.578Z,99559.37
2019-05-18T21:20:36.118Z,99564.81
2019-05-18T21:23:04.533Z,99561.51
2019-05-18T21:25:33.432Z,99567.47
2019-05-18T21:28:01.871Z,99570.23
2019-05-18T21:30:30.294Z,99566.99
2019-05-18T21:32:58.728Z,99569.77
2019-05-18T21:35:27.133Z,99565.40
2019-05-18T21:37:55.580Z,99560.81
2019-05-18T21:40:26.167Z,99563.25
2019-05-18T21:42:54.366Z,99561.55
2019-05-18T21:45:22.763Z,99564.46
2019-05-18T21:47:51.215Z,99560.53
2019-05-18T21:50:19.689Z,99564.81
2019-05-18T21:52:48.115Z,99565.99
2019-05-18T21:55:16.571Z,99572.88
2019-05-18T21:57:44.968Z,99561.23
2019-05-18T22:00:13.617Z,99561.65
2019-05-18T22:02:42.075Z,99558.09
2019-05-18T22:05:10.752Z,99561.50
2019-05-18T22:07:39.137Z,99566.28
2019-05-18T22:10:08.376Z,99560.42
2019-05-18T22:12:36.875Z,99563.83
2019-05-18T22:15:08.840Z,99557.64
2019-05-18T22:17:55.306Z,99553.59
2019-05-18T22:20:23.866Z,99555.72
2019-05-18T22:22:52.263Z,99548.16
2019-05-18T22:25:20.701Z,99548.52
2019-05-18T22:27:49.115Z,99547.69
2019-05-18T22:30:17.547Z,99545.17
2019-05-18T22:32:45.997Z,99539.97
2019-05-18T22:35:14.598Z,99541.41
2019-05-18T22:37:43.028Z,99536.70
2019-05-18T22:40:11.605Z,99541.62
2019-05-18T22:42:41.137Z,99536.74
2019-05-18T22:45:09.752Z,99539.38
2019-05-18T22:47:38.642Z,99535.52
2019-05-18T22:50:07.761Z,99538.52
2019-05-18T22:52:36.260Z,99549.20
2019-05-18T22:55:06.444Z,99550.50
2019-05-18T22:57:34.920Z,99551.55
2019-05-18T23:00:07.203Z,99540.85
2019-05-18T23:02:35.647Z,99537.45
2019-05-18T23:05:05.015Z,99536.01
2019-05-18T23:07:33.452Z,99532.04
2019-05-18T23:10:02.049Z,99528.45
2019-05-18T23:12:30.560Z,99523.34
2019-05-18T23:14:58.998Z,99523.21
2019-05-18T23:17:27.607Z,99513.94
2019-05-18T23:19:56.005Z,99507.91
2019-05-18T23:22:24.494Z,99501.80
2019-05-18T23:24:52.898Z,99490.14
2019-05-18T23:27:21.364Z,99491.68
2019-05-18T23:29:49.793Z,99494.17
2019-05-18T23:32:18.278Z,99485.50
2019-05-18T23:34:46.705Z,99485.27
2019-05-18T23:37:15.185Z,99481.45
2019-05-18T23:39:43.690Z,99491.30
2019-05-18T23:42:12.084Z,99492.00
2019-05-18T23:44:40.524Z,99482.52
2019-05-18T23:47:08.938Z,99480.05
2019-05-18T23:49:37.379Z,99482.27
2019-05-18T23:52:05.841Z,99477.06
2019-05-18T23:54:34.296Z,99470.38
2019-05-18T23:57:02.709Z,99472.61
2019-05-18T23:59:31.218Z,99476.10
